createdAt,value
2018-08-28T00:00:18.815Z,15.78
2018-08-28T00:02:47.329Z,15.82
2018-08-28T00:05:15.845Z,15.99
2018-08-28T00:07:44.662Z,16.03
2018-08-28T00:10:13.130Z,16.00
2018-08-28T00:12:41.574Z,15.88
2018-08-28T00:15:10.112Z,15.83
2018-08-28T00:17:38.660Z,15.71
2018-08-28T00:20:07.178Z,15.66
2018-08-28T00:22:35.725Z,15.66
2018-08-28T00:25:04.593Z,15.66
2018-08-28T00:27:33.119Z,15.65
2018-08-28T00:30:01.626Z,15.64
2018-08-28T00:32:30.113Z,15.65
2018-08-28T00:34:58.637Z,15.65
2018-08-28T00:37:27.136Z,15.65
2018-08-28T00:39:55.589Z,15.60
2018-08-28T00:42:24.079Z,15.62
2018-08-28T00:44:52.604Z,15.62
2018-08-28T00:47:21.102Z,15.66
2018-08-28T00:49:49.755Z,15.62
2018-08-28T00:52:18.303Z,15.63
2018-08-28T00:54:46.836Z,15.65
2018-08-28T00:57:15.343Z,15.68
2018-08-28T00:59:43.935Z,15.64
2018-08-28T01:02:12.433Z,15.63
2018-08-28T01:04:40.897Z,15.64
2018-08-28T01:07:09.625Z,15.64
2018-08-28T01:09:38.090Z,15.61
2018-08-28T01:12:06.585Z,15.61
2018-08-28T01:14:35.084Z,15.65
2018-08-28T01:17:03.980Z,15.59
2018-08-28T01:19:32.487Z,15.61
2018-08-28T01:22:00.990Z,15.66
2018-08-28T01:24:29.513Z,15.53
2018-08-28T01:26:58.047Z,15.55
2018-08-28T01:29:26.517Z,15.59
2018-08-28T01:31:55.061Z,15.69
2018-08-28T01:34:23.543Z,15.67
2018-08-28T01:36:52.003Z,15.68
2018-08-28T01:39:20.553Z,15.63
2018-08-28T01:41:49.067Z,15.64
2018-08-28T01:44:18.316Z,15.70
2018-08-28T01:46:46.839Z,15.68
2018-08-28T01:49:15.322Z,15.68
2018-08-28T01:51:43.791Z,15.67
2018-08-28T01:54:12.273Z,15.68
2018-08-28T01:56:40.803Z,15.68
2018-08-28T01:59:09.314Z,15.71
2018-08-28T02:01:37.834Z,15.71
2018-08-28T02:04:06.323Z,15.72
2018-08-28T02:06:34.839Z,15.68
2018-08-28T02:09:03.436Z,15.73
2018-08-28T02:11:31.977Z,15.72
2018-08-28T02:14:00.503Z,15.75
2018-08-28T02:16:29.026Z,15.79
2018-08-28T02:18:57.578Z,15.75
2018-08-28T02:21:26.058Z,15.71
2018-08-28T02:23:54.553Z,15.63
2018-08-28T02:26:23.075Z,15.64
2018-08-28T02:28:52.558Z,15.67
2018-08-28T02:31:21.063Z,15.62
2018-08-28T02:33:49.606Z,15.64
2018-08-28T02:36:18.145Z,15.64
2018-08-28T02:38:46.684Z,15.62
2018-08-28T02:41:15.205Z,15.64
2018-08-28T02:43:43.711Z,15.63
2018-08-28T02:46:12.229Z,15.61
2018-08-28T02:48:40.724Z,15.59
2018-08-28T02:51:09.265Z,15.62
2018-08-28T02:53:37.752Z,15.61
2018-08-28T02:56:06.280Z,15.64
2018-08-28T02:58:35.123Z,15.64
2018-08-28T03:01:03.643Z,15.61
2018-08-28T03:03:32.146Z,15.65
2018-08-28T03:06:00.709Z,15.62
2018-08-28T03:08:29.189Z,15.58
2018-08-28T03:10:57.668Z,15.55
2018-08-28T03:13:26.180Z,15.49
2018-08-28T03:15:54.815Z,15.42
2018-08-28T03:18:23.285Z,15.33
2018-08-28T03:20:51.839Z,15.24
2018-08-28T03:23:20.333Z,15.14
2018-08-28T03:25:48.835Z,15.06
2018-08-28T03:28:17.375Z,15.11
2018-08-28T03:30:45.868Z,15.12
2018-08-28T03:33:14.396Z,15.16
2018-08-28T03:35:42.886Z,15.15
2018-08-28T03:38:12.290Z,15.19
2018-08-28T03:40:42.753Z,15.23
2018-08-28T03:43:11.267Z,15.25
2018-08-28T03:45:39.785Z,15.26
2018-08-28T03:48:08.313Z,15.35
2018-08-28T03:50:36.856Z,15.38
2018-08-28T03:53:06.137Z,15.37
2018-08-28T03:55:34.826Z,15.33
2018-08-28T03:58:03.217Z,15.36
2018-08-28T04:00:31.728Z,15.41
2018-08-28T04:03:00.201Z,15.39
2018-08-28T04:05:29.103Z,15.43
2018-08-28T04:07:57.692Z,15.39
2018-08-28T04:10:26.971Z,15.37
2018-08-28T04:12:55.484Z,15.32
2018-08-28T04:15:23.961Z,15.30
2018-08-28T04:17:52.521Z,15.31
2018-08-28T04:20:21.673Z,15.38
2018-08-28T04:22:50.189Z,15.31
2018-08-28T04:25:19.049Z,15.27
2018-08-28T04:27:48.154Z,15.30
2018-08-28T04:30:16.741Z,15.26
2018-08-28T04:32:45.165Z,15.24
2018-08-28T04:35:13.694Z,15.28
2018-08-28T04:37:42.186Z,15.28
2018-08-28T04:40:10.717Z,15.31
2018-08-28T04:42:39.267Z,15.30
2018-08-28T04:45:07.784Z,15.29
2018-08-28T04:47:36.676Z,15.30
2018-08-28T04:50:05.806Z,15.30
2018-08-28T04:52:34.415Z,15.33
2018-08-28T04:55:03.015Z,15.37
2018-08-28T04:57:31.445Z,15.34
2018-08-28T04:59:59.910Z,15.42
2018-08-28T05:02:35.085Z,15.42
2018-08-28T05:05:05.062Z,15.43
2018-08-28T05:07:33.727Z,15.46
2018-08-28T05:10:02.365Z,15.53
2018-08-28T05:12:30.878Z,15.51
2018-08-28T05:14:59.889Z,15.55
2018-08-28T05:17:28.353Z,15.55
2018-08-28T05:19:56.821Z,15.57
2018-08-28T05:22:26.015Z,15.66
2018-08-28T05:24:54.554Z,15.70
2018-08-28T05:27:23.065Z,15.70
2018-08-28T05:29:51.943Z,15.74
2018-08-28T05:32:20.482Z,15.76
2018-08-28T05:34:49.062Z,15.77
2018-08-28T05:37:17.569Z,15.79
2018-08-28T05:39:46.077Z,15.89
2018-08-28T05:42:14.619Z,15.91
2018-08-28T05:44:43.156Z,16.00
2018-08-28T05:47:11.729Z,16.05
2018-08-28T05:49:41.190Z,16.07
2018-08-28T05:52:09.649Z,16.14
2018-08-28T05:54:38.233Z,16.23
2018-08-28T05:57:06.826Z,16.25
2018-08-28T05:59:35.682Z,16.30
2018-08-28T06:02:04.286Z,16.40
2018-08-28T06:04:32.770Z,16.50
2018-08-28T06:07:01.281Z,16.60
2018-08-28T06:09:29.849Z,16.65
2018-08-28T06:11:58.395Z,16.69
2018-08-28T06:14:26.897Z,16.68
2018-08-28T06:16:55.466Z,16.79
2018-08-28T06:19:23.953Z,16.87
2018-08-28T06:21:52.474Z,16.94
2018-08-28T06:24:22.139Z,16.96
2018-08-28T06:26:50.677Z,17.04
2018-08-28T06:29:19.233Z,17.05
2018-08-28T06:31:47.721Z,17.08
2018-08-28T06:34:16.179Z,17.10
2018-08-28T06:36:44.722Z,17.15
2018-08-28T06:39:13.308Z,17.17
2018-08-28T06:41:41.818Z,17.28
2018-08-28T06:44:10.471Z,17.25
2018-08-28T06:46:39.382Z,17.36
2018-08-28T06:49:07.864Z,17.52
2018-08-28T06:51:36.398Z,17.61
2018-08-28T06:54:04.951Z,17.67
2018-08-28T06:56:33.490Z,17.70
2018-08-28T06:59:01.999Z,17.80
2018-08-28T07:01:30.865Z,17.93
2018-08-28T07:03:59.457Z,18.08
2018-08-28T07:06:27.955Z,18.07
2018-08-28T07:08:56.516Z,18.30
2018-08-28T07:11:25.022Z,18.36
2018-08-28T07:13:53.523Z,18.60
2018-08-28T07:16:22.369Z,18.78
2018-08-28T07:18:50.985Z,18.93
2018-08-28T07:21:19.453Z,18.94
2018-08-28T07:23:47.984Z,19.08
2018-08-28T07:26:16.494Z,19.32
2018-08-28T07:28:45.064Z,19.36
2018-08-28T07:31:13.635Z,19.48
2018-08-28T07:33:42.534Z,19.49
2018-08-28T07:36:11.087Z,19.48
2018-08-28T07:38:39.611Z,19.72
2018-08-28T07:41:08.147Z,19.97
2018-08-28T07:43:36.673Z,19.89
2018-08-28T07:46:05.244Z,20.26
2018-08-28T07:48:33.781Z,20.34
2018-08-28T07:51:02.971Z,20.13
2018-08-28T07:53:31.462Z,20.34
2018-08-28T07:56:00.117Z,20.23
2018-08-28T07:58:28.613Z,20.30
2018-08-28T08:00:57.155Z,20.61
2018-08-28T08:03:25.990Z,20.86
2018-08-28T08:05:55.932Z,20.95
2018-08-28T08:08:24.505Z,20.93
2018-08-28T08:10:53.598Z,20.64
2018-08-28T08:13:22.110Z,20.81
2018-08-28T08:15:50.648Z,20.91
2018-08-28T08:18:19.202Z,21.16
2018-08-28T08:20:47.683Z,21.16
2018-08-28T08:23:16.550Z,21.41
2018-08-28T08:25:45.022Z,21.51
2018-08-28T08:28:13.578Z,20.47
2018-08-28T08:30:42.082Z,20.88
2018-08-28T08:33:10.563Z,21.15
2018-08-28T08:35:39.046Z,21.02
2018-08-28T08:38:07.602Z,21.15
2018-08-28T08:40:36.150Z,21.39
2018-08-28T08:43:04.633Z,21.31
2018-08-28T08:45:33.146Z,21.46
2018-08-28T08:48:01.626Z,20.81
2018-08-28T08:50:30.152Z,21.15
2018-08-28T08:52:58.657Z,21.22
2018-08-28T08:55:27.189Z,21.02
2018-08-28T08:57:55.697Z,21.31
2018-08-28T09:00:24.217Z,20.87
2018-08-28T09:02:59.446Z,20.73
2018-08-28T09:05:27.956Z,20.84
2018-08-28T09:07:56.439Z,20.35
2018-08-28T09:10:24.991Z,20.78
2018-08-28T09:12:53.495Z,20.72
2018-08-28T09:15:21.989Z,20.54
2018-08-28T09:17:50.526Z,20.36
2018-08-28T09:20:19.009Z,20.65
2018-08-28T09:22:47.559Z,20.64
2018-08-28T09:25:16.043Z,20.98
2018-08-28T09:27:44.585Z,21.23
2018-08-28T09:30:13.113Z,21.25
2018-08-28T09:32:41.593Z,21.45
2018-08-28T09:35:10.155Z,21.52
2018-08-28T09:37:38.646Z,21.34
2018-08-28T09:40:07.614Z,21.26
2018-08-28T09:42:36.153Z,20.78
2018-08-28T09:45:04.693Z,20.92
2018-08-28T09:47:33.554Z,20.92
2018-08-28T09:50:02.092Z,20.81
2018-08-28T09:52:30.579Z,20.94
2018-08-28T09:54:59.137Z,21.14
2018-08-28T09:57:27.625Z,21.26
2018-08-28T09:59:56.117Z,21.18
2018-08-28T10:02:24.703Z,21.31
2018-08-28T10:04:53.331Z,21.58
2018-08-28T10:07:21.741Z,21.87
2018-08-28T10:09:50.250Z,21.88
2018-08-28T10:12:18.853Z,22.16
2018-08-28T10:14:47.396Z,21.96
2018-08-28T10:17:15.968Z,22.17
2018-08-28T10:19:44.465Z,22.02
2018-08-28T10:22:13.084Z,22.18
2018-08-28T10:24:41.562Z,22.51
2018-08-28T10:27:10.040Z,23.12
2018-08-28T10:29:38.600Z,22.66
2018-08-28T10:32:07.657Z,22.59
2018-08-28T10:34:36.237Z,23.24
2018-08-28T10:37:04.983Z,23.79
2018-08-28T10:39:33.534Z,24.17
2018-08-28T10:42:02.062Z,23.90
2018-08-28T10:44:30.559Z,23.76
2018-08-28T10:46:59.221Z,24.04
2018-08-28T10:49:27.631Z,23.45
2018-08-28T10:51:56.248Z,23.67
2018-08-28T10:54:24.724Z,23.33
2018-08-28T10:56:53.261Z,24.09
2018-08-28T10:59:21.797Z,24.29
2018-08-28T11:01:50.288Z,24.49
2018-08-28T11:04:26.013Z,24.31
2018-08-28T11:06:55.081Z,24.35
2018-08-28T11:09:23.601Z,24.46
2018-08-28T11:11:52.147Z,23.68
2018-08-28T11:14:20.667Z,23.95
2018-08-28T11:16:49.203Z,23.90
2018-08-28T11:19:17.788Z,23.61
2018-08-28T11:21:46.346Z,23.89
2018-08-28T11:24:14.889Z,23.68
2018-08-28T11:26:43.407Z,23.47
2018-08-28T11:29:11.984Z,23.65
2018-08-28T11:31:40.598Z,23.73
2018-08-28T11:34:09.202Z,23.89
2018-08-28T11:36:37.708Z,23.36
2018-08-28T11:39:07.092Z,23.42
2018-08-28T11:41:35.626Z,23.03
2018-08-28T11:44:04.157Z,23.24
2018-08-28T11:46:32.691Z,23.72
2018-08-28T11:49:01.235Z,23.60
2018-08-28T11:51:30.288Z,23.80
2018-08-28T11:53:58.859Z,23.53
2018-08-28T11:56:27.382Z,23.79
2018-08-28T11:58:55.906Z,24.33
2018-08-28T12:01:24.397Z,24.08
2018-08-28T12:03:52.872Z,24.40
2018-08-28T12:06:21.718Z,24.65
2018-08-28T12:08:50.242Z,24.47
2018-08-28T12:11:18.716Z,24.06
2018-08-28T12:13:47.312Z,23.81
2018-08-28T12:16:15.866Z,24.18
2018-08-28T12:18:44.365Z,24.44
2018-08-28T12:21:13.686Z,24.33
2018-08-28T12:23:42.225Z,24.28
2018-08-28T12:26:10.727Z,23.93
2018-08-28T12:28:39.329Z,24.57
2018-08-28T12:31:07.845Z,24.90
2018-08-28T12:33:37.467Z,25.28
2018-08-28T12:36:05.977Z,25.24
2018-08-28T12:38:34.486Z,24.27
2018-08-28T12:41:03.005Z,25.01
2018-08-28T12:43:31.615Z,24.56
2018-08-28T12:46:00.114Z,25.60
2018-08-28T12:48:28.662Z,25.50
2018-08-28T12:50:57.174Z,25.42
2018-08-28T12:53:25.704Z,25.02
2018-08-28T12:55:54.285Z,24.67
2018-08-28T12:58:22.798Z,24.03
2018-08-28T13:00:51.319Z,24.50
2018-08-28T13:03:19.827Z,24.40
2018-08-28T13:05:49.095Z,24.32
2018-08-28T13:08:18.722Z,24.45
2018-08-28T13:10:47.288Z,24.54
2018-08-28T13:13:15.855Z,23.61
2018-08-28T13:15:44.442Z,23.01
2018-08-28T13:18:12.999Z,23.42
2018-08-28T13:20:41.477Z,23.35
2018-08-28T13:23:10.012Z,23.37
2018-08-28T13:25:38.797Z,23.31
2018-08-28T13:28:07.130Z,22.97
2018-08-28T13:30:35.694Z,22.96
2018-08-28T13:33:04.203Z,22.90
2018-08-28T13:35:32.678Z,22.88
2018-08-28T13:38:01.526Z,23.02
2018-08-28T13:40:30.139Z,22.89
2018-08-28T13:42:58.620Z,22.88
2018-08-28T13:45:27.191Z,23.04
2018-08-28T13:47:55.727Z,23.13
2018-08-28T13:50:24.261Z,23.22
2018-08-28T13:52:52.761Z,23.25
2018-08-28T13:55:21.285Z,23.17
2018-08-28T13:57:49.787Z,23.05
2018-08-28T14:00:18.298Z,22.91
2018-08-28T14:02:47.078Z,22.93
2018-08-28T14:05:15.658Z,22.89
2018-08-28T14:07:45.357Z,23.16
2018-08-28T14:10:14.226Z,23.10
2018-08-28T14:12:42.866Z,23.28
2018-08-28T14:15:11.377Z,23.21
2018-08-28T14:17:39.934Z,23.14
2018-08-28T14:20:08.461Z,23.29
2018-08-28T14:22:37.057Z,22.94
2018-08-28T14:25:05.837Z,23.23
2018-08-28T14:27:34.388Z,23.23
2018-08-28T14:30:02.938Z,23.36
2018-08-28T14:32:31.465Z,23.37
2018-08-28T14:35:00.005Z,23.22
2018-08-28T14:37:28.574Z,23.35
2018-08-28T14:39:57.163Z,23.21
2018-08-28T14:42:25.825Z,23.37
2018-08-28T14:44:54.266Z,23.87
2018-08-28T14:47:22.817Z,23.69
2018-08-28T14:49:51.477Z,23.19
2018-08-28T14:52:19.960Z,23.12
2018-08-28T14:54:48.513Z,22.84
2018-08-28T14:57:17.078Z,22.49
2018-08-28T14:59:45.566Z,22.86
2018-08-28T15:02:14.093Z,23.18
2018-08-28T15:04:43.029Z,23.56
2018-08-28T15:07:11.765Z,23.36
2018-08-28T15:09:40.143Z,23.32
2018-08-28T15:12:08.704Z,23.56
2018-08-28T15:14:37.226Z,22.86
2018-08-28T15:17:05.865Z,23.12
2018-08-28T15:19:34.395Z,23.11
2018-08-28T15:22:02.890Z,23.31
2018-08-28T15:27:13.256Z,23.74
2018-08-28T15:29:41.609Z,23.90
2018-08-28T15:32:10.108Z,24.16
2018-08-28T15:34:38.937Z,23.42
2018-08-28T15:37:07.449Z,23.46
2018-08-28T15:39:35.979Z,23.98
2018-08-28T15:42:04.521Z,24.04
2018-08-28T15:44:33.042Z,24.12
2018-08-28T15:47:01.608Z,23.79
2018-08-28T15:49:30.141Z,23.38
2018-08-28T15:51:58.645Z,23.65
2018-08-28T15:54:28.240Z,23.95
2018-08-28T15:56:56.739Z,23.51
2018-08-28T15:59:25.231Z,23.50
2018-08-28T16:01:53.869Z,23.00
2018-08-28T16:04:22.391Z,23.02
2018-08-28T16:06:52.202Z,23.05
2018-08-28T16:09:20.694Z,22.85
2018-08-28T16:11:49.300Z,23.15
2018-08-28T16:14:17.779Z,23.24
2018-08-28T16:16:47.125Z,23.09
2018-08-28T16:19:16.634Z,22.92
2018-08-28T16:21:55.537Z,22.87
2018-08-28T16:24:24.081Z,22.89
2018-08-28T16:26:53.238Z,22.95
2018-08-28T16:29:21.812Z,23.06
2018-08-28T16:31:50.338Z,23.03
2018-08-28T16:34:19.247Z,23.02
2018-08-28T16:36:47.741Z,23.02
2018-08-28T16:39:16.246Z,23.02
2018-08-28T16:41:44.848Z,22.95
2018-08-28T16:44:13.752Z,22.59
2018-08-28T16:46:42.306Z,22.47
2018-08-28T16:49:10.863Z,22.34
2018-08-28T16:51:39.388Z,22.24
2018-08-28T16:54:07.876Z,21.96
2018-08-28T16:56:36.415Z,22.15
2018-08-28T16:59:05.082Z,22.28
2018-08-28T17:01:33.995Z,21.92
2018-08-28T17:04:02.446Z,21.85
2018-08-28T17:06:30.929Z,21.85
2018-08-28T17:08:59.449Z,21.75
2018-08-28T17:11:27.977Z,21.68
2018-08-28T17:13:56.516Z,21.66
2018-08-28T17:16:25.055Z,21.44
2018-08-28T17:18:53.581Z,21.51
2018-08-28T17:21:22.453Z,21.28
2018-08-28T17:23:50.964Z,21.23
2018-08-28T17:26:19.457Z,21.11
2018-08-28T17:28:47.992Z,21.03
2018-08-28T17:31:16.495Z,20.92
2018-08-28T17:33:45.038Z,20.73
2018-08-28T17:36:13.539Z,20.59
2018-08-28T17:38:42.139Z,20.51
2018-08-28T17:41:10.990Z,20.48
2018-08-28T17:43:39.471Z,20.52
2018-08-28T17:46:07.973Z,20.42
2018-08-28T17:48:36.526Z,20.41
2018-08-28T17:51:05.106Z,20.32
2018-08-28T17:53:33.669Z,20.17
2018-08-28T17:56:02.169Z,20.02
2018-08-28T17:58:30.654Z,20.02
2018-08-28T18:00:59.213Z,20.04
2018-08-28T18:03:27.705Z,19.81
2018-08-28T18:05:56.220Z,19.77
2018-08-28T18:08:24.795Z,19.70
2018-08-28T18:10:53.324Z,19.57
2018-08-28T18:13:21.845Z,19.50
2018-08-28T18:15:50.422Z,19.40
2018-08-28T18:18:19.346Z,19.23
2018-08-28T18:20:47.827Z,19.01
2018-08-28T18:23:16.355Z,19.05
2018-08-28T18:25:45.345Z,18.92
2018-08-28T18:28:13.874Z,18.81
2018-08-28T18:30:42.454Z,18.67
2018-08-28T18:33:11.043Z,18.67
2018-08-28T18:35:39.943Z,18.73
2018-08-28T18:38:08.442Z,18.60
2018-08-28T18:40:36.948Z,18.54
2018-08-28T18:43:05.614Z,18.35
2018-08-28T18:45:34.196Z,18.27
2018-08-28T18:48:02.827Z,18.19
2018-08-28T18:50:31.809Z,18.20
2018-08-28T18:53:00.350Z,18.04
2018-08-28T18:55:28.880Z,18.12
2018-08-28T18:57:57.432Z,18.09
2018-08-28T19:00:26.070Z,17.96
2018-08-28T19:02:55.072Z,17.82
2018-08-28T19:05:23.817Z,17.98
2018-08-28T19:07:52.556Z,17.93
2018-08-28T19:10:21.515Z,17.82
2018-08-28T19:12:50.524Z,17.75
2018-08-28T19:15:19.468Z,17.78
2018-08-28T19:17:48.172Z,17.85
2018-08-28T19:20:17.523Z,17.75
2018-08-28T19:22:46.625Z,17.79
2018-08-28T19:25:15.950Z,17.59
2018-08-28T19:27:45.164Z,17.50
2018-08-28T19:30:14.206Z,17.38
2018-08-28T19:32:43.624Z,17.40
2018-08-28T19:35:12.469Z,17.44
2018-08-28T19:37:41.186Z,17.45
2018-08-28T19:40:09.904Z,17.23
2018-08-28T19:42:38.499Z,17.17
2018-08-28T19:45:07.080Z,17.28
2018-08-28T19:47:35.689Z,17.25
2018-08-28T19:50:04.547Z,17.18
2018-08-28T19:52:33.125Z,17.09
2018-08-28T19:55:01.674Z,16.98
2018-08-28T19:57:30.208Z,16.84
2018-08-28T19:59:58.718Z,16.82
2018-08-28T20:02:27.211Z,16.77
2018-08-28T20:04:56.242Z,16.89
2018-08-28T20:07:24.848Z,16.86
2018-08-28T20:09:53.366Z,16.81
2018-08-28T20:12:21.951Z,16.72
2018-08-28T20:14:50.463Z,16.66
2018-08-28T20:17:19.028Z,16.68
2018-08-28T20:19:47.557Z,16.67
2018-08-28T20:22:16.061Z,16.56
2018-08-28T20:24:44.574Z,16.62
2018-08-28T20:27:13.061Z,16.57
2018-08-28T20:29:41.666Z,16.42
2018-08-28T20:32:10.286Z,16.48
2018-08-28T20:34:38.858Z,16.39
2018-08-28T20:37:07.429Z,16.30
2018-08-28T20:39:35.938Z,16.33
2018-08-28T20:42:04.544Z,16.27
2018-08-28T20:44:33.062Z,16.26
2018-08-28T20:47:01.751Z,16.18
2018-08-28T20:49:30.331Z,16.10
2018-08-28T20:51:58.794Z,16.16
2018-08-28T20:54:27.275Z,16.12
2018-08-28T20:56:55.827Z,16.28
2018-08-28T20:59:24.339Z,16.13
2018-08-28T21:01:52.886Z,16.14
2018-08-28T21:04:21.389Z,16.10
2018-08-28T21:06:49.986Z,16.01
2018-08-28T21:09:18.467Z,16.01
2018-08-28T21:11:46.995Z,15.93
2018-08-28T21:14:15.517Z,15.85
2018-08-28T21:16:44.026Z,15.84
2018-08-28T21:19:12.509Z,15.81
2018-08-28T21:21:41.017Z,15.88
2018-08-28T21:24:09.580Z,15.86
2018-08-28T21:26:38.094Z,15.89
2018-08-28T21:29:06.704Z,15.78
2018-08-28T21:31:35.216Z,15.73
2018-08-28T21:34:03.726Z,15.74
2018-08-28T21:36:32.267Z,15.81
2018-08-28T21:39:01.069Z,15.74
2018-08-28T21:41:29.645Z,15.73
2018-08-28T21:43:58.222Z,15.72
2018-08-28T21:46:26.726Z,15.63
2018-08-28T21:48:55.201Z,15.67
2018-08-28T21:51:24.146Z,15.81
2018-08-28T21:53:52.645Z,15.71
2018-08-28T21:56:21.150Z,15.65
2018-08-28T21:58:49.722Z,15.53
2018-08-28T22:01:18.213Z,15.52
2018-08-28T22:03:46.719Z,15.66
2018-08-28T22:06:20.353Z,15.49
2018-08-28T22:08:48.826Z,15.46
2018-08-28T22:11:17.364Z,15.34
2018-08-28T22:13:45.963Z,15.33
2018-08-28T22:16:14.465Z,15.30
2018-08-28T22:18:42.997Z,15.33
2018-08-28T22:21:11.494Z,15.31
2018-08-28T22:23:40.077Z,15.25
2018-08-28T22:26:08.598Z,15.24
2018-08-28T22:28:37.104Z,15.24
2018-08-28T22:31:06.009Z,15.16
2018-08-28T22:33:34.513Z,15.10
2018-08-28T22:36:03.026Z,15.24
2018-08-28T22:38:31.550Z,15.09
2018-08-28T22:41:00.065Z,15.07
2018-08-28T22:43:28.599Z,14.97
2018-08-28T22:45:57.070Z,15.08
2018-08-28T22:48:25.587Z,15.03
2018-08-28T22:50:54.130Z,15.00
2018-08-28T22:53:22.721Z,15.03
2018-08-28T22:55:51.195Z,15.00
2018-08-28T22:58:19.692Z,15.15
2018-08-28T23:00:48.223Z,15.03
2018-08-28T23:03:16.751Z,14.98
2018-08-28T23:05:45.223Z,14.91
2018-08-28T23:08:13.695Z,14.88
2018-08-28T23:10:42.569Z,14.86
2018-08-28T23:13:11.101Z,14.85
2018-08-28T23:15:39.608Z,14.77
2018-08-28T23:18:08.178Z,14.64
2018-08-28T23:20:36.734Z,14.58
2018-08-28T23:23:05.543Z,14.55
2018-08-28T23:25:34.069Z,14.70
2018-08-28T23:28:02.602Z,14.79
2018-08-28T23:30:31.112Z,14.75
2018-08-28T23:32:59.835Z,14.62
2018-08-28T23:35:28.305Z,14.69
2018-08-28T23:37:56.809Z,14.62
2018-08-28T23:40:25.331Z,14.79
2018-08-28T23:42:53.858Z,14.90
2018-08-28T23:45:22.347Z,14.91
2018-08-28T23:47:50.876Z,14.71
2018-08-28T23:50:19.387Z,14.76
2018-08-28T23:52:47.949Z,14.76
2018-08-28T23:55:16.519Z,14.75
2018-08-28T23:57:45.033Z,14.61
